SIA635 RJTT-WSSS
Flight info
| Callsign | SIA635 |
|---|---|
| Flight time | N/A |
| Altitude | 36000 |
| Route | LAXAS Y56 NADAR Z26 TONAR Y52 IGURU G581 TULTO Q13 KABAM N892 MIGUG/K0915F360 N892 MELAS/N0495F360 N892 MABAL MABAL2A |
| Aircraft | B77W/H-SDE1E2E3FGHIJ4J5M1P2RWXYZ/LB1D1 |
Departure
| Time | 2026-05-07 03:18 |
|---|---|
| Airport | Tokyo Haneda International Airport (RJTT) |
Arrival
| Time | N/A |
|---|---|
| Airport | Singapore Changi Airport (WSSS) |
| Time | Latitude | Longitude | Altitude | Speed | Heading |
|---|---|---|---|---|---|
| 2026-05-06 23:31 | 35.54416 | 139.77141 | 27 ft | 0 kts | 240° |
| 2026-05-07 03:05 | 35.54417 | 139.77145 | 26 ft | 2 kts | 240° |
| 2026-05-07 03:05 | 35.54425 | 139.77162 | 27 ft | 2 kts | 240° |
| 2026-05-07 03:05 | 35.54432 | 139.77177 | 27 ft | 2 kts | 240° |
| 2026-05-07 03:05 | 35.54440 | 139.77193 | 27 ft | 2 kts | 240° |
| 2026-05-07 03:06 | 35.54448 | 139.77210 | 27 ft | 2 kts | 240° |
| 2026-05-07 03:06 | 35.54453 | 139.77226 | 27 ft | 2 kts | 268° |
| 2026-05-07 03:06 | 35.54451 | 139.77243 | 26 ft | 2 kts | 299° |
| 2026-05-07 03:06 | 35.54442 | 139.77258 | 26 ft | 1 kts | 327° |
| 2026-05-07 03:07 | 35.54436 | 139.77261 | 26 ft | 1 kts | 331° |
| 2026-05-07 03:08 | 35.54442 | 139.77257 | 26 ft | 2 kts | 329° |
| 2026-05-07 03:09 | 35.54469 | 139.77239 | 26 ft | 6 kts | 329° |
| 2026-05-07 03:09 | 35.54519 | 139.77214 | 27 ft | 9 kts | 2° |
| 2026-05-07 03:09 | 35.54576 | 139.77272 | 26 ft | 13 kts | 60° |
| 2026-05-07 03:09 | 35.54624 | 139.77374 | 27 ft | 13 kts | 60° |
| 2026-05-07 03:10 | 35.54664 | 139.77444 | 28 ft | 6 kts | 31° |
| 2026-05-07 03:10 | 35.54709 | 139.77437 | 29 ft | 7 kts | 332° |
| 2026-05-07 03:10 | 35.54760 | 139.77402 | 30 ft | 9 kts | 330° |
| 2026-05-07 03:10 | 35.54824 | 139.77357 | 31 ft | 11 kts | 330° |
| 2026-05-07 03:11 | 35.54906 | 139.77300 | 31 ft | 15 kts | 329° |
| 2026-05-07 03:11 | 35.55005 | 139.77228 | 31 ft | 17 kts | 329° |
| 2026-05-07 03:11 | 35.55110 | 139.77153 | 31 ft | 16 kts | 330° |
| 2026-05-07 03:11 | 35.55213 | 139.77081 | 31 ft | 16 kts | 330° |
| 2026-05-07 03:12 | 35.55313 | 139.77010 | 31 ft | 16 kts | 330° |
| 2026-05-07 03:12 | 35.55410 | 139.76939 | 31 ft | 15 kts | 330° |
| 2026-05-07 03:12 | 35.55506 | 139.76916 | 31 ft | 13 kts | 25° |
| 2026-05-07 03:12 | 35.55587 | 139.76984 | 31 ft | 13 kts | 35° |
| 2026-05-07 03:13 | 35.55665 | 139.77051 | 32 ft | 13 kts | 35° |
| 2026-05-07 03:13 | 35.55738 | 139.77113 | 33 ft | 12 kts | 36° |
| 2026-05-07 03:13 | 35.55815 | 139.77181 | 32 ft | 14 kts | 35° |
| 2026-05-07 03:13 | 35.55904 | 139.77258 | 31 ft | 15 kts | 42° |
| 2026-05-07 03:14 | 35.55961 | 139.77362 | 32 ft | 13 kts | 60° |
| 2026-05-07 03:14 | 35.56010 | 139.77466 | 31 ft | 14 kts | 60° |
| 2026-05-07 03:14 | 35.56113 | 139.77684 | 29 ft | 14 kts | 60° |
| 2026-05-07 03:15 | 35.56163 | 139.77789 | 30 ft | 13 kts | 60° |
| 2026-05-07 03:15 | 35.56211 | 139.77890 | 30 ft | 13 kts | 60° |
| 2026-05-07 03:15 | 35.56260 | 139.77994 | 29 ft | 14 kts | 60° |
| 2026-05-07 03:15 | 35.56310 | 139.78099 | 28 ft | 14 kts | 60° |
| 2026-05-07 03:16 | 35.56366 | 139.78217 | 25 ft | 17 kts | 60° |
| 2026-05-07 03:16 | 35.56435 | 139.78363 | 19 ft | 21 kts | 60° |
| 2026-05-07 03:16 | 35.56502 | 139.78507 | 15 ft | 13 kts | 59° |
| 2026-05-07 03:16 | 35.56541 | 139.78587 | 15 ft | 9 kts | 60° |
| 2026-05-07 03:17 | 35.56566 | 139.78644 | 15 ft | 5 kts | 71° |
| 2026-05-07 03:17 | 35.56558 | 139.78680 | 15 ft | 1 kts | 147° |
| 2026-05-07 03:17 | 35.56553 | 139.78683 | 15 ft | 3 kts | 150° |
| 2026-05-07 03:17 | 35.56390 | 139.78798 | 15 ft | 59 kts | 150° |
| 2026-05-07 03:18 | 35.55839 | 139.79187 | 15 ft | 122 kts | 149° |
| 2026-05-07 03:18 | 35.54942 | 139.79825 | 20 ft | 173 kts | 150° |
| 2026-05-07 03:18 | 35.53862 | 139.80600 | 444 ft | 185 kts | 152° |
| 2026-05-07 03:18 | 35.52736 | 139.81392 | 1181 ft | 190 kts | 151° |
| 2026-05-07 03:19 | 35.51594 | 139.82202 | 1893 ft | 192 kts | 152° |
| 2026-05-07 03:19 | 35.50428 | 139.83028 | 2399 ft | 196 kts | 152° |
| 2026-05-07 03:19 | 35.49250 | 139.83862 | 2954 ft | 198 kts | 152° |
| 2026-05-07 03:19 | 35.48026 | 139.84724 | 3292 ft | 211 kts | 152° |
| 2026-05-07 03:20 | 35.46735 | 139.85634 | 3475 ft | 232 kts | 153° |
| 2026-05-07 03:20 | 35.45139 | 139.86295 | 3662 ft | 252 kts | 176° |
| 2026-05-07 03:20 | 35.43379 | 139.86012 | 4105 ft | 259 kts | 204° |
| 2026-05-07 03:20 | 35.41900 | 139.84883 | 4911 ft | 254 kts | 218° |
| 2026-05-07 03:21 | 35.40512 | 139.83546 | 5548 ft | 258 kts | 219° |
| 2026-05-07 03:21 | 35.39110 | 139.82178 | 6271 ft | 257 kts | 219° |
| 2026-05-07 03:21 | 35.37704 | 139.80817 | 6921 ft | 260 kts | 219° |
| 2026-05-07 03:21 | 35.36271 | 139.79442 | 7565 ft | 262 kts | 219° |
| 2026-05-07 03:22 | 35.34833 | 139.78059 | 8123 ft | 267 kts | 219° |
| 2026-05-07 03:22 | 35.33389 | 139.76671 | 8850 ft | 265 kts | 219° |
| 2026-05-07 03:22 | 35.31927 | 139.75270 | 9432 ft | 268 kts | 220° |
| 2026-05-07 03:22 | 35.30482 | 139.73860 | 10014 ft | 270 kts | 221° |
| 2026-05-07 03:23 | 35.29031 | 139.72327 | 10386 ft | 283 kts | 222° |
| 2026-05-07 03:23 | 35.27499 | 139.70703 | 10543 ft | 303 kts | 222° |
| 2026-05-07 03:23 | 35.25831 | 139.68948 | 10683 ft | 323 kts | 221° |
| 2026-05-07 03:23 | 35.24068 | 139.67101 | 10778 ft | 345 kts | 221° |
| 2026-05-07 03:24 | 35.22215 | 139.65169 | 11030 ft | 361 kts | 221° |
| 2026-05-07 03:24 | 35.20286 | 139.63159 | 11583 ft | 367 kts | 221° |
| 2026-05-07 03:24 | 35.18340 | 139.61133 | 12403 ft | 367 kts | 221° |
| 2026-05-07 03:24 | 35.16389 | 139.59103 | 13163 ft | 370 kts | 221° |
| 2026-05-07 03:25 | 35.14439 | 139.57071 | 13857 ft | 375 kts | 221° |
| 2026-05-07 03:25 | 35.12441 | 139.54991 | 14609 ft | 380 kts | 221° |
| 2026-05-07 03:25 | 35.10472 | 139.52850 | 15402 ft | 382 kts | 226° |
| 2026-05-07 03:25 | 35.08741 | 139.50352 | 16072 ft | 389 kts | 235° |
| 2026-05-07 03:26 | 35.07367 | 139.47536 | 16792 ft | 393 kts | 244° |
| 2026-05-07 03:26 | 35.06366 | 139.44435 | 17445 ft | 400 kts | 252° |
| 2026-05-07 03:26 | 35.05756 | 139.41110 | 18114 ft | 405 kts | 258° |
| 2026-05-07 03:26 | 35.05246 | 139.37709 | 18849 ft | 408 kts | 258° |
| 2026-05-07 03:27 | 35.04728 | 139.34340 | 19566 ft | 410 kts | 257° |
| 2026-05-07 03:27 | 35.04186 | 139.30911 | 20249 ft | 414 kts | 257° |
| 2026-05-07 03:27 | 35.03633 | 139.27478 | 20857 ft | 419 kts | 257° |
| 2026-05-07 03:27 | 35.03063 | 139.23985 | 21362 ft | 426 kts | 257° |
| 2026-05-07 03:28 | 35.02475 | 139.20421 | 22021 ft | 429 kts | 257° |
| 2026-05-07 03:28 | 35.01881 | 139.16846 | 22674 ft | 431 kts | 257° |
| 2026-05-07 03:28 | 35.01282 | 139.13268 | 23243 ft | 436 kts | 257° |
| 2026-05-07 03:28 | 35.00679 | 139.09670 | 23896 ft | 437 kts | 257° |
| 2026-05-07 03:29 | 35.00068 | 139.06041 | 24559 ft | 439 kts | 257° |
| 2026-05-07 03:29 | 34.99457 | 139.02423 | 25106 ft | 443 kts | 257° |
| 2026-05-07 03:29 | 34.98865 | 138.98697 | 25598 ft | 449 kts | 261° |
| 2026-05-07 03:29 | 34.98581 | 138.94888 | 26028 ft | 456 kts | 265° |
| 2026-05-07 03:30 | 34.98383 | 138.91022 | 26613 ft | 458 kts | 265° |
| 2026-05-07 03:30 | 34.98189 | 138.87181 | 27310 ft | 458 kts | 265° |
| 2026-05-07 03:30 | 34.97990 | 138.83304 | 27881 ft | 460 kts | 265° |
| 2026-05-07 03:30 | 34.97787 | 138.79410 | 28331 ft | 465 kts | 265° |
| 2026-05-07 03:31 | 34.97581 | 138.75482 | 28745 ft | 470 kts | 265° |
| 2026-05-07 03:31 | 34.97368 | 138.71468 | 29163 ft | 475 kts | 265° |
| 2026-05-07 03:31 | 34.97154 | 138.67456 | 29809 ft | 475 kts | 264° |
| 2026-05-07 03:31 | 34.96941 | 138.63484 | 30703 ft | 469 kts | 265° |
| 2026-05-07 03:32 | 34.96729 | 138.59561 | 31581 ft | 462 kts | 264° |
| 2026-05-07 03:32 | 34.96518 | 138.55679 | 32307 ft | 459 kts | 264° |
| 2026-05-07 03:32 | 34.96307 | 138.51827 | 32852 ft | 458 kts | 264° |
| 2026-05-07 03:32 | 34.96093 | 138.47952 | 33385 ft | 458 kts | 264° |
| 2026-05-07 03:33 | 34.95880 | 138.44122 | 34063 ft | 455 kts | 264° |
| 2026-05-07 03:33 | 34.95668 | 138.40324 | 34838 ft | 449 kts | 264° |
| 2026-05-07 03:33 | 34.95456 | 138.36546 | 35614 ft | 443 kts | 264° |
| 2026-05-07 03:33 | 34.95248 | 138.32844 | 35969 ft | 441 kts | 264° |
| 2026-05-07 03:34 | 34.95035 | 138.29099 | 35977 ft | 440 kts | 263° |
| 2026-05-07 03:34 | 34.94609 | 138.21695 | 35979 ft | 442 kts | 264° |
| 2026-05-07 03:35 | 34.94176 | 138.14220 | 35974 ft | 441 kts | 264° |
| 2026-05-07 03:35 | 34.93743 | 138.06819 | 35977 ft | 440 kts | 263° |
| 2026-05-07 03:36 | 34.93302 | 137.99376 | 35975 ft | 444 kts | 264° |
| 2026-05-07 03:36 | 34.92854 | 137.91878 | 35975 ft | 442 kts | 264° |
| 2026-05-07 03:37 | 34.92403 | 137.84413 | 35974 ft | 441 kts | 263° |
| 2026-05-07 03:37 | 34.91949 | 137.76964 | 35985 ft | 445 kts | 263° |
| 2026-05-07 03:38 | 34.91453 | 137.69479 | 35977 ft | 444 kts | 259° |
| 2026-05-07 03:38 | 34.89796 | 137.62326 | 35988 ft | 442 kts | 249° |
| 2026-05-07 03:39 | 34.87719 | 137.55382 | 35978 ft | 438 kts | 249° |
| 2026-05-07 03:39 | 34.85391 | 137.48523 | 35967 ft | 441 kts | 240° |
| 2026-05-07 03:40 | 34.81656 | 137.42667 | 35966 ft | 439 kts | 228° |
| 2026-05-07 03:40 | 34.77463 | 137.37245 | 35962 ft | 443 kts | 228° |
| 2026-05-07 03:41 | 34.73272 | 137.31844 | 35965 ft | 439 kts | 228° |
| 2026-05-07 03:41 | 34.69093 | 137.26466 | 35961 ft | 438 kts | 227° |
| 2026-05-07 03:42 | 34.64901 | 137.21081 | 35970 ft | 440 kts | 228° |
| 2026-05-07 03:42 | 34.60688 | 137.15680 | 35966 ft | 440 kts | 227° |
| 2026-05-07 03:43 | 34.56494 | 137.10309 | 35964 ft | 438 kts | 227° |
| 2026-05-07 03:43 | 34.52309 | 137.04961 | 35960 ft | 438 kts | 227° |
| 2026-05-07 03:44 | 34.47651 | 137.00151 | 35963 ft | 440 kts | 219° |
| 2026-05-07 03:44 | 34.42847 | 136.95613 | 35966 ft | 438 kts | 219° |
| 2026-05-07 03:45 | 34.38042 | 136.91080 | 35971 ft | 440 kts | 220° |
| 2026-05-07 03:45 | 34.33202 | 136.86520 | 35973 ft | 440 kts | 219° |
| 2026-05-07 03:46 | 34.28368 | 136.81970 | 35970 ft | 440 kts | 219° |
| 2026-05-07 03:46 | 34.23574 | 136.77466 | 35974 ft | 440 kts | 219° |
| 2026-05-07 03:47 | 34.18747 | 136.72937 | 35974 ft | 440 kts | 219° |
| 2026-05-07 03:47 | 34.13907 | 136.68401 | 35973 ft | 440 kts | 219° |
| 2026-05-07 03:48 | 34.09073 | 136.63878 | 35977 ft | 437 kts | 219° |
| 2026-05-07 03:48 | 34.04285 | 136.59404 | 35982 ft | 438 kts | 219° |
| 2026-05-07 03:49 | 33.99454 | 136.54898 | 35978 ft | 438 kts | 219° |
| 2026-05-07 03:49 | 33.94633 | 136.50407 | 35970 ft | 439 kts | 219° |
| 2026-05-07 03:50 | 33.89827 | 136.45937 | 35979 ft | 439 kts | 219° |
| 2026-05-07 03:50 | 33.84998 | 136.41452 | 35984 ft | 437 kts | 219° |
| 2026-05-07 03:51 | 33.80546 | 136.36490 | 35982 ft | 437 kts | 226° |
| 2026-05-07 03:51 | 33.76280 | 136.31284 | 35993 ft | 441 kts | 226° |
| 2026-05-07 03:52 | 33.71975 | 136.26044 | 35992 ft | 440 kts | 226° |
| 2026-05-07 03:52 | 33.67671 | 136.20816 | 35992 ft | 443 kts | 225° |
| 2026-05-07 03:53 | 33.63347 | 136.15573 | 35990 ft | 440 kts | 226° |
| 2026-05-07 03:53 | 33.59037 | 136.10358 | 35991 ft | 443 kts | 225° |
| 2026-05-07 03:54 | 33.54682 | 136.05095 | 35987 ft | 444 kts | 225° |
| 2026-05-07 03:54 | 33.50347 | 135.99864 | 35989 ft | 445 kts | 225° |
| 2026-05-07 03:55 | 33.45972 | 135.94595 | 35986 ft | 444 kts | 225° |
| 2026-05-07 03:55 | 33.41611 | 135.89351 | 35987 ft | 446 kts | 225° |
| 2026-05-07 03:56 | 33.37255 | 135.84119 | 35989 ft | 447 kts | 225° |
| 2026-05-07 03:56 | 33.32867 | 135.78857 | 35986 ft | 447 kts | 225° |
| 2026-05-07 03:57 | 33.28463 | 135.73584 | 35983 ft | 451 kts | 225° |
| 2026-05-07 03:57 | 33.24043 | 135.68300 | 35982 ft | 451 kts | 225° |
| 2026-05-07 03:58 | 33.19619 | 135.63019 | 35984 ft | 452 kts | 225° |